createdAt,value
2019-05-25T00:00:24.990Z,17.62
2019-05-25T00:01:24.978Z,17.68
2019-05-25T00:02:24.966Z,17.66
2019-05-25T00:03:24.991Z,17.56
2019-05-25T00:04:24.950Z,17.56
2019-05-25T00:05:24.935Z,17.49
2019-05-25T00:06:24.923Z,17.59
2019-05-25T00:07:24.913Z,17.44
2019-05-25T00:08:24.902Z,17.49
2019-05-25T00:09:24.943Z,17.41
2019-05-25T00:10:24.882Z,17.40
2019-05-25T00:11:24.870Z,17.38
2019-05-25T00:12:24.872Z,17.43
2019-05-25T00:13:24.866Z,17.41
2019-05-25T00:14:24.838Z,17.41
2019-05-25T00:15:24.867Z,17.43
2019-05-25T00:16:24.817Z,17.40
2019-05-25T00:17:24.805Z,17.33
2019-05-25T00:18:24.800Z,17.26
2019-05-25T00:19:24.781Z,17.31
2019-05-25T00:20:24.783Z,17.26
2019-05-25T00:21:24.786Z,17.33
2019-05-25T00:22:24.748Z,17.26
2019-05-25T00:23:24.744Z,17.28
2019-05-25T00:24:24.725Z,17.19
2019-05-25T00:25:24.746Z,17.19
2019-05-25T00:26:24.711Z,17.11
2019-05-25T00:27:24.696Z,17.14
2019-05-25T00:28:24.684Z,17.03
2019-05-25T00:29:24.672Z,17.04
2019-05-25T00:30:24.750Z,17.01
2019-05-25T00:31:24.655Z,17.03
2019-05-25T00:32:24.640Z,17.00
2019-05-25T00:33:24.633Z,16.94
2019-05-25T00:34:24.621Z,16.94
2019-05-25T00:35:24.635Z,16.97
2019-05-25T00:36:24.596Z,16.94
2019-05-25T00:37:24.633Z,16.97
2019-05-25T00:38:24.575Z,16.82
2019-05-25T00:39:24.562Z,16.83
2019-05-25T00:40:24.578Z,16.83
2019-05-25T00:41:24.538Z,16.88
2019-05-25T00:42:24.527Z,16.79
2019-05-25T00:43:24.582Z,16.67
2019-05-25T00:44:24.559Z,16.75
2019-05-25T00:45:24.520Z,16.71
2019-05-25T00:46:24.484Z,16.64
2019-05-25T00:47:24.473Z,16.61
2019-05-25T00:48:24.461Z,16.58
2019-05-25T00:49:24.461Z,16.57
2019-05-25T00:50:24.469Z,16.58
2019-05-25T00:51:24.430Z,16.56
2019-05-25T00:52:24.421Z,16.53
2019-05-25T00:53:24.410Z,16.53
2019-05-25T00:54:28.080Z,16.48
2019-05-25T00:55:24.409Z,16.41
2019-05-25T00:56:24.374Z,16.41
2019-05-25T00:57:24.366Z,16.38
2019-05-25T00:58:24.353Z,16.33
2019-05-25T00:59:24.345Z,16.34
2019-05-25T01:00:24.357Z,16.30
2019-05-25T01:01:24.598Z,16.43
2019-05-25T01:02:24.311Z,16.25
2019-05-25T01:03:24.301Z,16.30
2019-05-25T01:04:24.288Z,16.17
2019-05-25T01:05:24.307Z,16.11
2019-05-25T01:06:24.266Z,16.12
2019-05-25T01:07:24.258Z,16.05
2019-05-25T01:08:24.245Z,16.05
2019-05-25T01:09:24.232Z,16.02
2019-05-25T01:10:24.248Z,16.00
2019-05-25T01:11:24.212Z,15.97
2019-05-25T01:12:24.202Z,15.87
2019-05-25T01:13:24.192Z,15.94
2019-05-25T01:14:24.179Z,15.86
2019-05-25T01:15:24.193Z,15.90
2019-05-25T01:16:24.167Z,15.87
2019-05-25T01:17:24.144Z,15.92
2019-05-25T01:18:24.134Z,15.87
2019-05-25T01:19:24.132Z,15.82
2019-05-25T01:20:24.138Z,15.76
2019-05-25T01:21:24.104Z,15.78
2019-05-25T01:22:24.090Z,15.78
2019-05-25T01:23:24.081Z,15.74
2019-05-25T01:24:24.069Z,15.80
2019-05-25T01:25:24.083Z,15.75
2019-05-25T01:26:24.048Z,15.72
2019-05-25T01:27:24.037Z,15.68
2019-05-25T01:28:24.028Z,15.68
2019-05-25T01:29:24.013Z,15.71
2019-05-25T01:30:24.025Z,15.71
2019-05-25T01:31:23.993Z,15.69
2019-05-25T01:32:23.985Z,15.62
2019-05-25T01:33:23.972Z,15.60
2019-05-25T01:34:23.959Z,15.56
2019-05-25T01:35:23.973Z,15.44
2019-05-25T01:36:23.938Z,15.49
2019-05-25T01:37:23.927Z,15.41
2019-05-25T01:38:23.923Z,15.53
2019-05-25T01:39:23.904Z,15.47
2019-05-25T01:40:23.926Z,15.47
2019-05-25T01:41:23.884Z,15.47
2019-05-25T01:42:23.871Z,15.35
2019-05-25T01:43:23.859Z,15.46
2019-05-25T01:44:23.848Z,15.35
2019-05-25T01:45:23.872Z,15.31
2019-05-25T01:46:23.825Z,15.20
2019-05-25T01:47:23.817Z,15.19
2019-05-25T01:48:23.804Z,15.17
2019-05-25T01:49:23.794Z,15.09
2019-05-25T01:50:23.806Z,15.11
2019-05-25T01:51:23.772Z,14.99
2019-05-25T01:52:23.761Z,15.09
2019-05-25T01:53:23.749Z,15.01
2019-05-25T01:54:23.737Z,15.07
2019-05-25T01:55:23.752Z,15.02
2019-05-25T01:56:23.714Z,14.89
2019-05-25T01:57:23.719Z,14.91
2019-05-25T01:58:23.693Z,14.94
2019-05-25T01:59:23.682Z,14.81
2019-05-25T02:00:23.700Z,14.96
2019-05-25T02:01:23.660Z,14.84
2019-05-25T02:02:23.649Z,14.86
2019-05-25T02:03:23.638Z,14.91
2019-05-25T02:04:23.630Z,14.88
2019-05-25T02:05:23.640Z,14.78
2019-05-25T02:06:23.617Z,14.75
2019-05-25T02:07:23.601Z,14.78
2019-05-25T02:08:23.584Z,14.72
2019-05-25T02:09:23.572Z,14.57
2019-05-25T02:10:23.586Z,14.61
2019-05-25T02:11:23.551Z,14.60
2019-05-25T02:12:23.539Z,14.50
2019-05-25T02:13:23.533Z,14.47
2019-05-25T02:14:23.523Z,14.50
2019-05-25T02:15:23.532Z,14.47
2019-05-25T02:16:23.498Z,14.36
2019-05-25T02:17:23.486Z,14.37
2019-05-25T02:18:23.485Z,14.33
2019-05-25T02:19:23.464Z,14.29
2019-05-25T02:20:23.480Z,14.43
2019-05-25T02:21:23.442Z,14.37
2019-05-25T02:22:23.431Z,14.35
2019-05-25T02:23:23.419Z,14.35
2019-05-25T02:24:23.409Z,14.35
2019-05-25T02:25:23.427Z,14.36
2019-05-25T02:26:23.388Z,14.29
2019-05-25T02:27:23.426Z,14.28
2019-05-25T02:28:23.365Z,14.17
2019-05-25T02:29:23.356Z,14.18
2019-05-25T02:30:23.369Z,14.09
2019-05-25T02:31:23.333Z,14.06
2019-05-25T02:32:23.327Z,14.09
2019-05-25T02:33:23.310Z,14.09
2019-05-25T02:34:23.300Z,14.21
2019-05-25T02:35:23.312Z,14.09
2019-05-25T02:36:23.276Z,14.07
2019-05-25T02:37:23.266Z,14.09
2019-05-25T02:38:23.255Z,14.14
2019-05-25T02:39:23.244Z,14.12
2019-05-25T02:40:23.258Z,14.07
2019-05-25T02:41:23.220Z,14.07
2019-05-25T02:42:23.210Z,14.00
2019-05-25T02:43:23.197Z,13.89
2019-05-25T02:44:23.187Z,13.89
2019-05-25T02:45:23.201Z,13.84
2019-05-25T02:46:23.166Z,13.79
2019-05-25T02:47:23.153Z,13.79
2019-05-25T02:48:23.143Z,13.75
2019-05-25T02:49:23.133Z,13.70
2019-05-25T02:50:23.145Z,13.63
2019-05-25T02:51:23.116Z,13.70
2019-05-25T02:52:23.095Z,13.64
2019-05-25T02:53:23.085Z,13.60
2019-05-25T02:54:23.075Z,13.70
2019-05-25T02:55:33.838Z,13.60
2019-05-25T02:56:24.054Z,13.59
2019-05-25T02:57:23.046Z,13.59
2019-05-25T02:58:23.033Z,13.60
2019-05-25T02:59:23.019Z,13.52
2019-05-25T03:00:23.033Z,13.52
2019-05-25T03:01:22.998Z,13.52
2019-05-25T03:02:22.988Z,13.52
2019-05-25T03:03:22.976Z,13.48
2019-05-25T03:04:22.963Z,13.48
2019-05-25T03:05:22.979Z,13.45
2019-05-25T03:06:22.943Z,13.57
2019-05-25T03:07:22.940Z,13.55
2019-05-25T03:08:22.923Z,13.49
2019-05-25T03:09:22.915Z,13.39
2019-05-25T03:10:22.924Z,13.33
2019-05-25T03:11:22.903Z,13.39
2019-05-25T03:12:22.881Z,13.36
2019-05-25T03:13:22.872Z,13.33
2019-05-25T03:14:22.862Z,13.22
2019-05-25T03:15:22.873Z,13.33
2019-05-25T03:16:22.835Z,13.26
2019-05-25T03:17:22.825Z,13.36
2019-05-25T03:18:22.814Z,13.28
2019-05-25T03:19:22.804Z,13.23
2019-05-25T03:20:22.818Z,13.14
2019-05-25T03:21:22.782Z,13.08
2019-05-25T03:22:22.771Z,13.08
2019-05-25T03:23:22.761Z,13.07
2019-05-25T03:24:22.749Z,13.00
2019-05-25T03:25:22.763Z,13.05
2019-05-25T03:26:22.725Z,13.11
2019-05-25T03:27:22.718Z,13.05
2019-05-25T03:28:22.706Z,13.07
2019-05-25T03:29:22.697Z,13.07
2019-05-25T03:30:22.708Z,13.07
2019-05-25T03:31:22.673Z,12.97
2019-05-25T03:32:22.670Z,13.03
2019-05-25T03:33:22.664Z,13.03
2019-05-25T03:34:22.690Z,13.05
2019-05-25T03:35:22.658Z,13.00
2019-05-25T03:36:22.620Z,13.01
2019-05-25T03:37:22.615Z,13.05
2019-05-25T03:38:22.605Z,13.07
2019-05-25T03:39:22.587Z,12.95
2019-05-25T03:40:22.601Z,13.08
2019-05-25T03:41:22.568Z,13.03
2019-05-25T03:42:22.555Z,12.96
2019-05-25T03:43:22.543Z,13.04
2019-05-25T03:44:22.553Z,13.10
2019-05-25T03:45:22.551Z,13.01
2019-05-25T03:46:22.514Z,13.10
2019-05-25T03:47:22.501Z,13.01
2019-05-25T03:48:22.491Z,13.07
2019-05-25T03:49:22.479Z,13.03
2019-05-25T03:50:22.494Z,12.97
2019-05-25T03:51:22.458Z,13.04
2019-05-25T03:52:22.447Z,13.04
2019-05-25T03:53:22.436Z,13.00
2019-05-25T03:54:22.434Z,13.05
2019-05-25T03:55:22.438Z,13.00
2019-05-25T03:56:22.406Z,13.01
2019-05-25T03:57:22.391Z,12.95
2019-05-25T03:58:22.383Z,12.92
2019-05-25T03:59:22.376Z,12.92
2019-05-25T04:00:22.393Z,12.93
2019-05-25T04:01:22.356Z,12.95
2019-05-25T04:02:22.339Z,13.03
2019-05-25T04:03:22.337Z,13.03
2019-05-25T04:04:22.319Z,12.95
2019-05-25T04:05:22.331Z,12.97
2019-05-25T04:06:22.296Z,12.90
2019-05-25T04:07:22.286Z,12.93
2019-05-25T04:08:22.274Z,12.83
2019-05-25T04:09:22.263Z,12.85
2019-05-25T04:10:22.279Z,12.87
2019-05-25T04:11:22.243Z,12.87
2019-05-25T04:12:22.233Z,12.74
2019-05-25T04:13:22.222Z,12.85
2019-05-25T04:14:22.240Z,12.85
2019-05-25T04:15:22.231Z,12.87
2019-05-25T04:16:22.189Z,12.82
2019-05-25T04:17:22.179Z,12.95
2019-05-25T04:18:22.167Z,12.93
2019-05-25T04:19:22.157Z,12.93
2019-05-25T04:20:22.167Z,12.92
2019-05-25T04:21:22.133Z,13.03
2019-05-25T04:22:22.126Z,13.04
2019-05-25T04:23:22.113Z,13.03
2019-05-25T04:24:22.105Z,13.03
2019-05-25T04:25:22.114Z,13.08
2019-05-25T04:26:23.040Z,13.10
2019-05-25T04:27:22.081Z,13.05
2019-05-25T04:28:22.060Z,12.95
2019-05-25T04:29:22.050Z,12.93
2019-05-25T04:30:22.061Z,12.96
2019-05-25T04:31:22.069Z,12.95
2019-05-25T04:32:22.055Z,13.05
2019-05-25T04:33:22.003Z,12.90
2019-05-25T04:34:21.989Z,13.07
2019-05-25T04:35:22.008Z,13.05
2019-05-25T04:36:21.970Z,13.00
2019-05-25T04:37:21.958Z,13.05
2019-05-25T04:38:21.948Z,13.05
2019-05-25T04:39:21.936Z,13.11
2019-05-25T04:40:23.171Z,13.05
2019-05-25T04:41:21.913Z,13.07
2019-05-25T04:42:21.905Z,13.07
2019-05-25T04:43:21.890Z,13.10
2019-05-25T04:44:21.882Z,13.08
2019-05-25T04:45:21.894Z,13.10
2019-05-25T04:46:21.858Z,13.05
2019-05-25T04:47:26.969Z,13.07
2019-05-25T04:48:22.836Z,13.20
2019-05-25T04:49:21.831Z,13.11
2019-05-25T04:50:21.838Z,13.11
2019-05-25T04:51:21.802Z,13.10
2019-05-25T04:52:21.804Z,13.08
2019-05-25T04:53:21.779Z,13.08
2019-05-25T04:54:21.772Z,13.10
2019-05-25T04:55:21.792Z,13.04
2019-05-25T04:56:37.888Z,13.04
2019-05-25T04:57:22.739Z,13.07
2019-05-25T04:58:21.989Z,13.08
2019-05-25T04:59:21.717Z,13.08
2019-05-25T05:00:21.729Z,13.07
2019-05-25T05:01:22.639Z,13.10
2019-05-25T05:02:21.683Z,13.05
2019-05-25T05:03:21.679Z,13.08
2019-05-25T05:04:21.669Z,13.08
2019-05-25T05:05:21.674Z,13.17
2019-05-25T05:06:21.653Z,13.22
2019-05-25T05:07:21.626Z,13.20
2019-05-25T05:08:21.616Z,13.25
2019-05-25T05:09:21.604Z,13.17
2019-05-25T05:10:21.619Z,13.17
2019-05-25T05:11:21.584Z,13.23
2019-05-25T05:12:21.576Z,13.23
2019-05-25T05:13:21.561Z,13.26
2019-05-25T05:14:21.550Z,13.22
2019-05-25T05:15:21.565Z,13.26
2019-05-25T05:16:21.532Z,13.28
2019-05-25T05:17:21.522Z,13.28
2019-05-25T05:18:21.510Z,13.36
2019-05-25T05:19:21.496Z,13.30
2019-05-25T05:20:21.516Z,13.36
2019-05-25T05:21:21.476Z,13.46
2019-05-25T05:22:21.464Z,13.45
2019-05-25T05:23:21.455Z,13.44
2019-05-25T05:24:21.442Z,13.45
2019-05-25T05:25:21.458Z,13.57
2019-05-25T05:26:21.437Z,13.57
2019-05-25T05:27:21.410Z,13.63
2019-05-25T05:28:21.397Z,13.63
2019-05-25T05:29:21.388Z,13.70
2019-05-25T05:30:21.402Z,13.66
2019-05-25T05:31:23.812Z,13.63
2019-05-25T05:32:27.508Z,13.63
2019-05-25T05:33:24.049Z,13.73
2019-05-25T05:34:21.334Z,13.77
2019-05-25T05:35:21.353Z,13.75
2019-05-25T05:36:21.312Z,13.67
2019-05-25T05:37:21.300Z,13.75
2019-05-25T05:38:21.289Z,13.67
2019-05-25T05:39:21.279Z,13.67
2019-05-25T05:40:21.300Z,13.64
2019-05-25T05:41:21.256Z,13.70
2019-05-25T05:42:21.248Z,13.73
2019-05-25T05:43:21.235Z,13.75
2019-05-25T05:44:21.226Z,13.70
2019-05-25T05:45:21.237Z,13.73
2019-05-25T05:46:21.199Z,13.82
2019-05-25T05:47:21.189Z,13.84
2019-05-25T05:48:21.187Z,13.87
2019-05-25T05:49:21.168Z,13.96
2019-05-25T05:50:21.183Z,13.95
2019-05-25T05:51:21.145Z,13.99
2019-05-25T05:52:21.137Z,13.96
2019-05-25T05:53:21.122Z,13.99
2019-05-25T05:54:21.113Z,14.03
2019-05-25T05:55:21.129Z,14.10
2019-05-25T05:56:21.093Z,14.10
2019-05-25T05:57:21.079Z,14.09
2019-05-25T05:58:21.067Z,14.10
2019-05-25T05:59:21.064Z,14.06
2019-05-25T06:00:21.067Z,14.15
2019-05-25T06:01:21.035Z,14.14
2019-05-25T06:02:21.026Z,14.25
2019-05-25T06:03:21.015Z,14.29
2019-05-25T06:04:21.001Z,14.20
2019-05-25T06:05:21.014Z,14.21
2019-05-25T06:06:20.979Z,14.21
2019-05-25T06:07:20.975Z,14.28
2019-05-25T06:08:20.957Z,14.32
2019-05-25T06:09:20.947Z,14.39
2019-05-25T06:10:20.962Z,14.29
2019-05-25T06:11:20.923Z,14.42
2019-05-25T06:12:20.914Z,14.37
2019-05-25T06:13:20.933Z,14.42
2019-05-25T06:14:20.897Z,14.32
2019-05-25T06:15:20.904Z,14.39
2019-05-25T06:16:20.891Z,14.46
2019-05-25T06:17:20.856Z,14.54
2019-05-25T06:18:20.847Z,14.47
2019-05-25T06:19:20.835Z,14.46
2019-05-25T06:20:20.849Z,14.45
2019-05-25T06:21:20.813Z,14.45
2019-05-25T06:22:20.801Z,14.54
2019-05-25T06:23:20.790Z,14.61
2019-05-25T06:24:20.785Z,14.73
2019-05-25T06:25:20.800Z,14.84
2019-05-25T06:26:20.759Z,14.88
2019-05-25T06:27:27.374Z,14.86
2019-05-25T06:28:22.601Z,14.94
2019-05-25T06:29:20.727Z,14.96
2019-05-25T06:30:20.752Z,14.96
2019-05-25T06:31:20.703Z,14.91
2019-05-25T06:32:20.709Z,14.84
2019-05-25T06:33:20.686Z,14.98
2019-05-25T06:34:20.674Z,15.06
2019-05-25T06:35:20.729Z,15.03
2019-05-25T06:36:20.655Z,15.06
2019-05-25T06:37:20.637Z,15.11
2019-05-25T06:38:20.627Z,15.06
2019-05-25T06:39:20.624Z,15.10
2019-05-25T06:40:20.634Z,15.17
2019-05-25T06:41:20.597Z,15.19
2019-05-25T06:42:20.585Z,15.25
2019-05-25T06:43:20.573Z,15.31
2019-05-25T06:44:20.644Z,15.41
2019-05-25T06:45:20.589Z,15.41
2019-05-25T06:46:20.540Z,15.47
2019-05-25T06:47:20.528Z,15.57
2019-05-25T06:48:20.517Z,15.50
2019-05-25T06:49:20.505Z,15.60
2019-05-25T06:50:20.521Z,15.44
2019-05-25T06:51:20.484Z,15.49
2019-05-25T06:52:20.472Z,15.51
2019-05-25T06:53:20.462Z,15.53
2019-05-25T06:54:20.452Z,15.46
2019-05-25T06:55:20.471Z,15.56
2019-05-25T06:56:20.430Z,15.50
2019-05-25T06:57:20.417Z,15.50
2019-05-25T06:58:20.409Z,15.50
2019-05-25T06:59:20.395Z,15.62
2019-05-25T07:00:20.412Z,15.62
2019-05-25T07:01:20.373Z,15.64
2019-05-25T07:02:22.564Z,15.59
2019-05-25T07:03:20.354Z,15.57
2019-05-25T07:04:20.344Z,15.54
2019-05-25T07:05:20.358Z,15.65
2019-05-25T07:06:20.321Z,15.59
2019-05-25T07:07:20.311Z,15.46
2019-05-25T07:08:20.298Z,15.57
2019-05-25T07:09:20.286Z,15.54
2019-05-25T07:10:20.301Z,15.46
2019-05-25T07:11:20.289Z,15.57
2019-05-25T07:12:20.254Z,15.47
2019-05-25T07:13:20.243Z,15.50
2019-05-25T07:14:20.233Z,15.47
2019-05-25T07:15:20.245Z,15.47
2019-05-25T07:16:20.212Z,15.41
2019-05-25T07:17:20.200Z,15.50
2019-05-25T07:18:20.194Z,15.36
2019-05-25T07:19:20.179Z,15.47
2019-05-25T07:20:20.191Z,15.49
2019-05-25T07:21:20.158Z,15.56
2019-05-25T07:22:20.146Z,15.39
2019-05-25T07:23:20.137Z,15.53
2019-05-25T07:24:20.129Z,15.53
2019-05-25T07:25:20.571Z,15.53
2019-05-25T07:26:20.104Z,15.44
2019-05-25T07:27:20.097Z,15.47
2019-05-25T07:28:20.082Z,15.56
2019-05-25T07:29:20.073Z,15.59
2019-05-25T07:30:20.090Z,15.54
2019-05-25T07:31:20.052Z,15.56
2019-05-25T07:32:20.040Z,15.62
2019-05-25T07:33:20.028Z,15.69
2019-05-25T07:34:20.018Z,15.54
2019-05-25T07:35:20.033Z,15.51
2019-05-25T07:36:19.996Z,15.69
2019-05-25T07:37:19.987Z,15.67
2019-05-25T07:38:19.976Z,15.56
2019-05-25T07:39:20.016Z,15.64
2019-05-25T07:40:19.981Z,15.68
2019-05-25T07:41:19.943Z,15.82
2019-05-25T07:42:20.232Z,15.92
2019-05-25T07:43:19.919Z,16.08
2019-05-25T07:44:19.926Z,16.09
2019-05-25T07:45:19.948Z,16.05
2019-05-25T07:46:19.888Z,15.93
2019-05-25T07:47:19.878Z,15.87
2019-05-25T07:48:19.864Z,15.86
2019-05-25T07:49:19.854Z,15.84
2019-05-25T07:50:19.867Z,15.80
2019-05-25T07:51:19.832Z,15.86
2019-05-25T07:52:19.821Z,15.93
2019-05-25T07:53:19.812Z,15.92
2019-05-25T07:54:19.798Z,15.80
2019-05-25T07:55:19.819Z,15.94
2019-05-25T07:56:19.800Z,15.90
2019-05-25T07:57:19.765Z,15.82
2019-05-25T07:58:19.762Z,15.90
2019-05-25T07:59:19.742Z,15.86
2019-05-25T08:00:19.782Z,15.93
2019-05-25T08:01:19.762Z,15.84
2019-05-25T08:02:19.716Z,15.86
2019-05-25T08:03:19.698Z,16.00
2019-05-25T08:04:19.686Z,15.92
2019-05-25T08:05:19.721Z,16.05
2019-05-25T08:06:19.666Z,15.92
2019-05-25T08:07:19.659Z,15.93
2019-05-25T08:08:19.642Z,15.86
2019-05-25T08:09:19.629Z,15.76
2019-05-25T08:10:19.645Z,15.76
2019-05-25T08:11:19.620Z,15.80
2019-05-25T08:12:19.618Z,15.75
2019-05-25T08:13:19.587Z,15.78
2019-05-25T08:14:19.579Z,15.80
2019-05-25T08:15:19.592Z,15.87
2019-05-25T08:16:19.554Z,15.76
2019-05-25T08:17:19.543Z,15.80
2019-05-25T08:18:19.535Z,15.82
2019-05-25T08:19:19.523Z,15.76
2019-05-25T08:20:19.535Z,15.90
2019-05-25T08:21:19.502Z,15.87
2019-05-25T08:22:19.488Z,16.05
2019-05-25T08:23:19.482Z,16.12
2019-05-25T08:24:19.472Z,16.28
2019-05-25T08:25:19.505Z,16.17
2019-05-25T08:26:19.445Z,16.34
2019-05-25T08:27:19.440Z,16.24
2019-05-25T08:28:32.188Z,16.23
2019-05-25T08:29:20.411Z,16.25
2019-05-25T08:30:19.431Z,16.34
2019-05-25T08:31:19.400Z,16.38
2019-05-25T08:32:19.378Z,16.20
2019-05-25T08:33:19.367Z,16.02
2019-05-25T08:34:19.361Z,16.04
2019-05-25T08:35:19.367Z,16.04
2019-05-25T08:36:19.334Z,16.07
2019-05-25T08:37:19.324Z,16.07
2019-05-25T08:38:19.310Z,16.08
2019-05-25T08:39:19.301Z,16.09
2019-05-25T08:40:19.327Z,16.05
2019-05-25T08:41:19.338Z,16.17
2019-05-25T08:42:19.273Z,16.11
2019-05-25T08:43:19.255Z,16.01
2019-05-25T08:44:19.244Z,16.05
2019-05-25T08:45:19.263Z,16.09
2019-05-25T08:46:19.221Z,16.02
2019-05-25T08:47:19.214Z,15.96
2019-05-25T08:48:19.224Z,15.92
2019-05-25T08:49:19.189Z,15.93
2019-05-25T08:50:19.204Z,16.00
2019-05-25T08:51:19.167Z,15.84
2019-05-25T08:52:19.159Z,15.84
2019-05-25T08:53:23.220Z,15.80
2019-05-25T08:54:20.132Z,15.76
2019-05-25T08:55:19.147Z,15.67
2019-05-25T08:56:19.111Z,15.60
2019-05-25T08:57:19.101Z,15.53
2019-05-25T08:58:19.091Z,15.64
2019-05-25T08:59:19.077Z,15.64
2019-05-25T09:00:19.093Z,15.62
2019-05-25T09:01:19.055Z,15.47
2019-05-25T09:02:19.043Z,15.49
2019-05-25T09:03:19.037Z,15.64
2019-05-25T09:04:19.023Z,15.68
2019-05-25T09:05:19.049Z,15.68
2019-05-25T09:06:18.999Z,15.72
2019-05-25T09:07:18.988Z,15.76
2019-05-25T09:08:18.980Z,15.89
2019-05-25T09:09:18.966Z,16.08
2019-05-25T09:10:18.979Z,16.12
2019-05-25T09:11:18.945Z,16.09
2019-05-25T09:12:18.933Z,16.14
2019-05-25T09:13:18.923Z,16.31
2019-05-25T09:14:18.911Z,16.39
2019-05-25T09:15:18.926Z,16.35
2019-05-25T09:16:18.892Z,16.42
2019-05-25T09:17:18.880Z,16.35
2019-05-25T09:18:18.868Z,16.39
2019-05-25T09:19:18.862Z,16.34
2019-05-25T09:20:18.868Z,16.35
2019-05-25T09:21:18.834Z,16.30
2019-05-25T09:22:18.823Z,16.15
2019-05-25T09:23:18.823Z,16.17
2019-05-25T09:24:18.807Z,16.20
2019-05-25T09:25:18.821Z,16.30
2019-05-25T09:26:18.779Z,16.38
2019-05-25T09:27:18.781Z,16.38
2019-05-25T09:28:18.760Z,16.39
2019-05-25T09:29:18.747Z,16.42
2019-05-25T09:30:18.761Z,16.39
2019-05-25T09:31:18.725Z,16.45
2019-05-25T09:32:18.719Z,16.49
2019-05-25T09:33:18.703Z,16.56
2019-05-25T09:34:18.693Z,16.61
2019-05-25T09:35:18.726Z,16.60
2019-05-25T09:36:18.675Z,16.63
2019-05-25T09:37:18.659Z,16.61
2019-05-25T09:38:18.652Z,16.68
2019-05-25T09:39:18.637Z,16.81
2019-05-25T09:40:18.659Z,16.67
2019-05-25T09:41:18.616Z,16.71
2019-05-25T09:42:18.606Z,16.61
2019-05-25T09:43:18.596Z,16.71
2019-05-25T09:44:18.612Z,16.68
2019-05-25T09:45:18.596Z,16.67
2019-05-25T09:46:18.615Z,16.73
2019-05-25T09:47:18.553Z,16.70
2019-05-25T09:48:18.541Z,16.76
2019-05-25T09:49:18.529Z,16.82
2019-05-25T09:50:18.560Z,16.83
2019-05-25T09:51:18.507Z,16.79
2019-05-25T09:52:18.496Z,16.79
2019-05-25T09:53:18.484Z,16.73
2019-05-25T09:54:18.476Z,16.81
2019-05-25T09:55:18.521Z,16.96
2019-05-25T09:56:18.459Z,17.01
2019-05-25T09:57:18.440Z,16.86
2019-05-25T09:58:18.431Z,16.94
2019-05-25T09:59:20.322Z,17.00
2019-05-25T10:00:18.477Z,17.01
2019-05-25T10:01:18.398Z,17.03
2019-05-25T10:02:18.389Z,17.07
2019-05-25T10:03:18.374Z,17.07
2019-05-25T10:04:18.364Z,17.11
2019-05-25T10:05:18.402Z,17.00
2019-05-25T10:06:18.348Z,17.04
2019-05-25T10:07:18.333Z,17.00
2019-05-25T10:08:18.329Z,16.98
2019-05-25T10:09:18.339Z,17.08
2019-05-25T10:10:18.326Z,17.14
2019-05-25T10:11:18.290Z,17.06
2019-05-25T10:12:18.277Z,17.06
2019-05-25T10:13:18.267Z,17.06
2019-05-25T10:14:18.266Z,17.04
2019-05-25T10:15:18.321Z,17.06
2019-05-25T10:16:18.238Z,17.01
2019-05-25T10:17:18.221Z,17.11
2019-05-25T10:18:18.214Z,17.15
2019-05-25T10:19:18.200Z,17.33
2019-05-25T10:20:18.212Z,17.41
2019-05-25T10:21:18.178Z,17.48
2019-05-25T10:22:18.167Z,17.51
2019-05-25T10:23:18.157Z,17.41
2019-05-25T10:24:18.148Z,17.34
2019-05-25T10:25:18.162Z,17.30
2019-05-25T10:26:18.125Z,17.26
2019-05-25T10:27:18.111Z,17.31
2019-05-25T10:28:18.107Z,17.25
2019-05-25T10:29:18.089Z,17.30
2019-05-25T10:30:18.109Z,17.26
2019-05-25T10:31:18.070Z,17.26
2019-05-25T10:32:18.056Z,17.38
2019-05-25T10:33:21.670Z,17.40
2019-05-25T10:34:18.035Z,17.55
2019-05-25T10:35:18.049Z,17.43
2019-05-25T10:36:18.016Z,17.43
2019-05-25T10:37:18.014Z,17.44
2019-05-25T10:38:17.989Z,17.23
2019-05-25T10:39:17.978Z,17.30
2019-05-25T10:40:17.995Z,17.12
2019-05-25T10:41:17.959Z,17.08
2019-05-25T10:42:17.946Z,17.11
2019-05-25T10:43:17.936Z,17.06
2019-05-25T10:44:17.926Z,17.03
2019-05-25T10:45:17.939Z,17.08
2019-05-25T10:46:17.902Z,17.12
2019-05-25T10:47:17.891Z,17.15
2019-05-25T10:48:17.880Z,17.28
2019-05-25T10:49:17.870Z,17.23
2019-05-25T10:50:17.886Z,17.14
2019-05-25T10:51:17.848Z,17.16
2019-05-25T10:52:17.837Z,17.21
2019-05-25T10:53:17.832Z,17.25
2019-05-25T10:54:17.814Z,17.21
2019-05-25T10:55:17.829Z,17.21
2019-05-25T10:56:17.794Z,17.11
2019-05-25T10:57:17.784Z,17.15
2019-05-25T10:58:17.777Z,17.22
2019-05-25T10:59:17.757Z,17.46
2019-05-25T11:00:17.775Z,17.44
2019-05-25T11:01:17.736Z,17.55
2019-05-25T11:02:17.725Z,17.64
2019-05-25T11:03:17.714Z,17.70
2019-05-25T11:04:17.707Z,17.72
2019-05-25T11:05:17.719Z,17.79
2019-05-25T11:06:17.681Z,17.81
2019-05-25T11:07:17.672Z,17.81
2019-05-25T11:08:17.662Z,17.82
2019-05-25T11:09:17.663Z,17.82
2019-05-25T11:10:17.668Z,17.77
2019-05-25T11:11:17.626Z,17.70
2019-05-25T11:12:17.618Z,17.64
2019-05-25T11:13:17.606Z,17.59
2019-05-25T11:14:17.597Z,17.56
2019-05-25T11:15:17.609Z,17.62
2019-05-25T11:16:17.574Z,17.71
2019-05-25T11:17:17.639Z,17.77
2019-05-25T11:18:17.554Z,17.82
2019-05-25T11:19:17.574Z,17.84
2019-05-25T11:20:17.559Z,17.92
2019-05-25T11:21:17.526Z,17.99
2019-05-25T11:22:17.527Z,17.95
2019-05-25T11:23:17.501Z,18.10
2019-05-25T11:24:17.488Z,17.87
2019-05-25T11:25:17.502Z,17.95
2019-05-25T11:26:17.467Z,17.78
2019-05-25T11:27:17.456Z,17.78
2019-05-25T11:28:17.444Z,17.89
2019-05-25T11:29:17.434Z,17.79
2019-05-25T11:30:17.466Z,17.81
2019-05-25T11:31:17.415Z,17.87
2019-05-25T11:32:17.405Z,17.93
2019-05-25T11:33:17.392Z,18.12
2019-05-25T11:34:17.380Z,18.23
2019-05-25T11:35:17.398Z,18.44
2019-05-25T11:36:17.361Z,18.41
2019-05-25T11:37:17.356Z,18.33
2019-05-25T11:38:17.341Z,18.39
2019-05-25T11:39:17.325Z,18.36
2019-05-25T11:40:17.337Z,18.41
2019-05-25T11:41:17.301Z,18.39
2019-05-25T11:42:17.290Z,18.20
2019-05-25T11:43:17.282Z,17.96
2019-05-25T11:44:17.268Z,17.86
2019-05-25T11:45:17.284Z,17.87
2019-05-25T11:46:17.245Z,17.92
2019-05-25T11:47:17.235Z,17.81
2019-05-25T11:48:17.377Z,17.84
2019-05-25T11:49:22.397Z,17.89
2019-05-25T11:50:18.236Z,17.81
2019-05-25T11:51:17.194Z,17.82
2019-05-25T11:52:17.180Z,17.81
2019-05-25T11:53:17.168Z,17.82
2019-05-25T11:54:17.156Z,17.77
2019-05-25T11:55:17.169Z,17.75
2019-05-25T11:56:17.138Z,17.81
2019-05-25T11:57:17.124Z,17.74
2019-05-25T11:58:17.117Z,17.72
2019-05-25T11:59:17.103Z,17.70
2019-05-25T12:00:25.120Z,17.84
2019-05-25T12:01:18.077Z,17.82
2019-05-25T12:02:17.067Z,17.89
2019-05-25T12:03:17.058Z,17.92
2019-05-25T12:04:17.054Z,17.92
2019-05-25T12:05:17.061Z,18.08
2019-05-25T12:06:17.024Z,17.96
2019-05-25T12:07:17.012Z,17.87
2019-05-25T12:08:17.002Z,17.86
2019-05-25T12:09:16.990Z,17.84
2019-05-25T12:10:17.007Z,17.75
2019-05-25T12:11:16.972Z,17.77
2019-05-25T12:12:16.958Z,17.75
2019-05-25T12:13:16.947Z,17.72
2019-05-25T12:14:16.947Z,17.66
2019-05-25T12:15:16.949Z,17.54
2019-05-25T12:16:16.916Z,17.44
2019-05-25T12:17:16.905Z,17.56
2019-05-25T12:18:16.895Z,17.66
2019-05-25T12:19:16.895Z,17.72
2019-05-25T12:20:16.895Z,17.84
2019-05-25T12:21:16.860Z,17.79
2019-05-25T12:22:16.850Z,17.84
2019-05-25T12:23:16.850Z,17.86
2019-05-25T12:24:16.831Z,17.92
2019-05-25T12:25:16.842Z,17.79
2019-05-25T12:26:16.809Z,17.74
2019-05-25T12:27:16.799Z,17.63
2019-05-25T12:28:16.791Z,17.54
2019-05-25T12:29:16.774Z,17.54
2019-05-25T12:30:16.790Z,17.49
2019-05-25T12:31:16.753Z,17.66
2019-05-25T12:32:16.743Z,17.70
2019-05-25T12:33:16.735Z,17.70
2019-05-25T12:34:16.724Z,17.87
2019-05-25T12:35:16.736Z,17.97
2019-05-25T12:36:16.703Z,18.08
2019-05-25T12:37:16.692Z,17.81
2019-05-25T12:38:16.680Z,17.78
2019-05-25T12:39:16.671Z,17.75
2019-05-25T12:40:16.687Z,17.74
2019-05-25T12:41:16.646Z,17.90
2019-05-25T12:42:16.636Z,18.00
2019-05-25T12:43:16.627Z,18.44
2019-05-25T12:44:16.612Z,18.51
2019-05-25T12:45:16.628Z,18.54
2019-05-25T12:46:16.602Z,18.67
2019-05-25T12:47:16.582Z,18.50
2019-05-25T12:48:16.573Z,18.45
2019-05-25T12:49:16.559Z,18.42
2019-05-25T12:50:16.575Z,18.51
2019-05-25T12:51:17.861Z,18.36
2019-05-25T12:52:16.525Z,18.32